sensor_id;sensor_type;location;lat;lon;timestamp;P1;durP1;ratioP1;P2;durP2;ratioP2
69172;SDS011;56280;49.662;8.408;2024-02-15T00:00:58;12.77;;;8.77;;
69172;SDS011;56280;49.662;8.408;2024-02-15T00:03:24;12.67;;;8.47;;
69172;SDS011;56280;49.662;8.408;2024-02-15T00:05:50;13.05;;;8.43;;
69172;SDS011;56280;49.662;8.408;2024-02-15T00:08:15;14.60;;;8.50;;
69172;SDS011;56280;49.662;8.408;2024-02-15T00:10:41;12.03;;;8.77;;
69172;SDS011;56280;49.662;8.408;2024-02-15T00:13:06;10.47;;;7.90;;
69172;SDS011;56280;49.662;8.408;2024-02-15T00:15:31;12.03;;;8.00;;
69172;SDS011;56280;49.662;8.408;2024-02-15T00:17:59;12.20;;;8.00;;
69172;SDS011;56280;49.662;8.408;2024-02-15T00:20:24;12.10;;;8.00;;
69172;SDS011;56280;49.662;8.408;2024-02-15T00:22:50;12.83;;;7.97;;
69172;SDS011;56280;49.662;8.408;2024-02-15T00:25:16;11.47;;;7.93;;
69172;SDS011;56280;49.662;8.408;2024-02-15T00:27:41;12.67;;;7.77;;
69172;SDS011;56280;49.662;8.408;2024-02-15T00:30:06;13.43;;;7.63;;
69172;SDS011;56280;49.662;8.408;2024-02-15T00:32:33;10.95;;;7.57;;
69172;SDS011;56280;49.662;8.408;2024-02-15T00:34:59;12.10;;;7.90;;
69172;SDS011;56280;49.662;8.408;2024-02-15T00:37:24;12.07;;;7.73;;
69172;SDS011;56280;49.662;8.408;2024-02-15T00:39:50;12.43;;;7.50;;
69172;SDS011;56280;49.662;8.408;2024-02-15T00:42:15;11.03;;;7.43;;
69172;SDS011;56280;49.662;8.408;2024-02-15T00:44:41;12.23;;;7.63;;
69172;SDS011;56280;49.662;8.408;2024-02-15T00:47:06;10.33;;;6.57;;
69172;SDS011;56280;49.662;8.408;2024-02-15T00:49:32;11.05;;;7.15;;
69172;SDS011;56280;49.662;8.408;2024-02-15T00:51:58;12.27;;;7.00;;
69172;SDS011;56280;49.662;8.408;2024-02-15T00:54:24;11.63;;;7.13;;
69172;SDS011;56280;49.662;8.408;2024-02-15T00:56:49;11.10;;;7.47;;
69172;SDS011;56280;49.662;8.408;2024-02-15T00:59:16;9.85;;;6.43;;
69172;SDS011;56280;49.662;8.408;2024-02-15T01:01:41;12.95;;;6.97;;
69172;SDS011;56280;49.662;8.408;2024-02-15T01:04:06;9.27;;;6.33;;
69172;SDS011;56280;49.662;8.408;2024-02-15T01:06:32;12.13;;;7.00;;
69172;SDS011;56280;49.662;8.408;2024-02-15T01:08:57;10.45;;;6.25;;
69172;SDS011;56280;49.662;8.408;2024-02-15T01:11:23;9.05;;;6.00;;
69172;SDS011;56280;49.662;8.408;2024-02-15T01:13:49;9.27;;;5.27;;
69172;SDS011;56280;49.662;8.408;2024-02-15T01:16:16;8.30;;;5.25;;
69172;SDS011;56280;49.662;8.408;2024-02-15T01:18:41;7.73;;;4.87;;
69172;SDS011;56280;49.662;8.408;2024-02-15T01:21:06;7.05;;;4.30;;
69172;SDS011;56280;49.662;8.408;2024-02-15T01:23:31;8.50;;;4.53;;
69172;SDS011;56280;49.662;8.408;2024-02-15T01:25:57;7.97;;;4.23;;
69172;SDS011;56280;49.662;8.408;2024-02-15T01:28:22;7.75;;;4.53;;
69172;SDS011;56280;49.662;8.408;2024-02-15T01:30:48;8.10;;;4.45;;
69172;SDS011;56280;49.662;8.408;2024-02-15T01:33:14;8.57;;;4.80;;
69172;SDS011;56280;49.662;8.408;2024-02-15T01:35:40;9.10;;;4.40;;
69172;SDS011;56280;49.662;8.408;2024-02-15T01:38:05;8.90;;;4.43;;
69172;SDS011;56280;49.662;8.408;2024-02-15T01:40:31;8.07;;;5.10;;
69172;SDS011;56280;49.662;8.408;2024-02-15T01:42:56;9.02;;;4.30;;
69172;SDS011;56280;49.662;8.408;2024-02-15T01:45:23;8.00;;;4.60;;
69172;SDS011;56280;49.662;8.408;2024-02-15T01:47:49;8.00;;;4.23;;
69172;SDS011;56280;49.662;8.408;2024-02-15T01:50:14;8.07;;;4.30;;
69172;SDS011;56280;49.662;8.408;2024-02-15T01:52:42;6.97;;;4.25;;
69172;SDS011;56280;49.662;8.408;2024-02-15T01:55:12;7.95;;;4.50;;
69172;SDS011;56280;49.662;8.408;2024-02-15T01:57:39;6.32;;;3.95;;
69172;SDS011;56280;49.662;8.408;2024-02-15T02:00:05;8.10;;;4.43;;
69172;SDS011;56280;49.662;8.408;2024-02-15T02:02:33;7.88;;;4.50;;
69172;SDS011;56280;49.662;8.408;2024-02-15T02:05:00;7.15;;;4.38;;
69172;SDS011;56280;49.662;8.408;2024-02-15T02:07:26;10.07;;;4.68;;
69172;SDS011;56280;49.662;8.408;2024-02-15T02:09:51;8.77;;;4.83;;
69172;SDS011;56280;49.662;8.408;2024-02-15T02:12:17;8.18;;;4.75;;
69172;SDS011;56280;49.662;8.408;2024-02-15T02:14:43;6.47;;;4.55;;
69172;SDS011;56280;49.662;8.408;2024-02-15T02:17:12;9.13;;;4.90;;
69172;SDS011;56280;49.662;8.408;2024-02-15T02:19:39;8.75;;;4.70;;
69172;SDS011;56280;49.662;8.408;2024-02-15T02:22:04;6.88;;;4.40;;
69172;SDS011;56280;49.662;8.408;2024-02-15T02:24:30;10.83;;;4.90;;
69172;SDS011;56280;49.662;8.408;2024-02-15T02:27:02;7.75;;;5.13;;
69172;SDS011;56280;49.662;8.408;2024-02-15T02:29:30;7.60;;;5.13;;
69172;SDS011;56280;49.662;8.408;2024-02-15T02:31:56;10.55;;;5.75;;
69172;SDS011;56280;49.662;8.408;2024-02-15T02:34:22;9.07;;;5.27;;
69172;SDS011;56280;49.662;8.408;2024-02-15T02:36:47;8.13;;;5.70;;
69172;SDS011;56280;49.662;8.408;2024-02-15T02:39:13;9.40;;;5.20;;
69172;SDS011;56280;49.662;8.408;2024-02-15T02:41:38;8.50;;;5.20;;
69172;SDS011;56280;49.662;8.408;2024-02-15T02:44:03;7.70;;;4.83;;
69172;SDS011;56280;49.662;8.408;2024-02-15T02:46:29;8.93;;;4.70;;
69172;SDS011;56280;49.662;8.408;2024-02-15T02:48:55;7.60;;;4.20;;
69172;SDS011;56280;49.662;8.408;2024-02-15T02:51:21;7.50;;;4.20;;
69172;SDS011;56280;49.662;8.408;2024-02-15T02:53:46;8.48;;;4.35;;
69172;SDS011;56280;49.662;8.408;2024-02-15T02:56:11;7.00;;;4.40;;
69172;SDS011;56280;49.662;8.408;2024-02-15T02:58:37;8.90;;;4.20;;
69172;SDS011;56280;49.662;8.408;2024-02-15T03:01:07;8.63;;;4.63;;
69172;SDS011;56280;49.662;8.408;2024-02-15T03:03:33;6.70;;;4.20;;
69172;SDS011;56280;49.662;8.408;2024-02-15T03:05:58;7.17;;;3.93;;
69172;SDS011;56280;49.662;8.408;2024-02-15T03:08:24;8.70;;;4.30;;
69172;SDS011;56280;49.662;8.408;2024-02-15T03:10:49;7.33;;;4.40;;
69172;SDS011;56280;49.662;8.408;2024-02-15T03:13:16;7.23;;;4.43;;
69172;SDS011;56280;49.662;8.408;2024-02-15T03:15:45;11.55;;;4.53;;
69172;SDS011;56280;49.662;8.408;2024-02-15T03:18:16;9.43;;;4.63;;
69172;SDS011;56280;49.662;8.408;2024-02-15T03:20:42;9.73;;;4.47;;
69172;SDS011;56280;49.662;8.408;2024-02-15T03:23:08;7.80;;;4.63;;
69172;SDS011;56280;49.662;8.408;2024-02-15T03:25:33;9.60;;;4.97;;
69172;SDS011;56280;49.662;8.408;2024-02-15T03:27:59;8.20;;;4.90;;
69172;SDS011;56280;49.662;8.408;2024-02-15T03:30:28;8.65;;;5.20;;
69172;SDS011;56280;49.662;8.408;2024-02-15T03:32:56;9.23;;;4.73;;
69172;SDS011;56280;49.662;8.408;2024-02-15T03:35:25;11.95;;;5.82;;
69172;SDS011;56280;49.662;8.408;2024-02-15T03:37:51;12.02;;;6.40;;
69172;SDS011;56280;49.662;8.408;2024-02-15T03:40:17;12.55;;;6.75;;
69172;SDS011;56280;49.662;8.408;2024-02-15T03:42:44;12.32;;;7.15;;
69172;SDS011;56280;49.662;8.408;2024-02-15T03:45:09;11.80;;;7.30;;
69172;SDS011;56280;49.662;8.408;2024-02-15T03:47:35;12.82;;;7.45;;
69172;SDS011;56280;49.662;8.408;2024-02-15T03:50:02;12.10;;;7.17;;
69172;SDS011;56280;49.662;8.408;2024-02-15T03:52:28;11.98;;;7.10;;
69172;SDS011;56280;49.662;8.408;2024-02-15T03:54:55;10.10;;;6.55;;
69172;SDS011;56280;49.662;8.408;2024-02-15T03:57:22;11.23;;;7.18;;
69172;SDS011;56280;49.662;8.408;2024-02-15T03:59:48;12.23;;;7.50;;
69172;SDS011;56280;49.662;8.408;2024-02-15T04:02:17;12.50;;;7.07;;
69172;SDS011;56280;49.662;8.408;2024-02-15T04:04:43;13.00;;;7.23;;
69172;SDS011;56280;49.662;8.408;2024-02-15T04:07:11;11.85;;;7.05;;
69172;SDS011;56280;49.662;8.408;2024-02-15T04:09:37;10.57;;;7.10;;
69172;SDS011;56280;49.662;8.408;2024-02-15T04:12:02;10.90;;;6.77;;
69172;SDS011;56280;49.662;8.408;2024-02-15T04:14:28;14.48;;;7.30;;
69172;SDS011;56280;49.662;8.408;2024-02-15T04:16:53;11.33;;;7.23;;
69172;SDS011;56280;49.662;8.408;2024-02-15T04:19:18;11.93;;;7.40;;
69172;SDS011;56280;49.662;8.408;2024-02-15T04:21:47;11.25;;;7.22;;
69172;SDS011;56280;49.662;8.408;2024-02-15T04:24:12;12.60;;;7.68;;
69172;SDS011;56280;49.662;8.408;2024-02-15T04:26:38;14.83;;;8.10;;
69172;SDS011;56280;49.662;8.408;2024-02-15T04:29:03;11.93;;;7.45;;
69172;SDS011;56280;49.662;8.408;2024-02-15T04:31:29;10.43;;;7.37;;
69172;SDS011;56280;49.662;8.408;2024-02-15T04:33:57;10.85;;;7.28;;
69172;SDS011;56280;49.662;8.408;2024-02-15T04:36:23;11.90;;;7.10;;
69172;SDS011;56280;49.662;8.408;2024-02-15T04:38:50;13.50;;;7.30;;
69172;SDS011;56280;49.662;8.408;2024-02-15T04:41:16;15.20;;;7.57;;
69172;SDS011;56280;49.662;8.408;2024-02-15T04:43:47;12.52;;;7.20;;
69172;SDS011;56280;49.662;8.408;2024-02-15T04:46:13;11.43;;;6.95;;
69172;SDS011;56280;49.662;8.408;2024-02-15T04:48:39;11.57;;;7.22;;
69172;SDS011;56280;49.662;8.408;2024-02-15T04:51:06;10.75;;;7.03;;
69172;SDS011;56280;49.662;8.408;2024-02-15T04:53:32;9.60;;;6.97;;
69172;SDS011;56280;49.662;8.408;2024-02-15T04:55:57;12.70;;;7.47;;
69172;SDS011;56280;49.662;8.408;2024-02-15T04:58:25;10.65;;;7.15;;
69172;SDS011;56280;49.662;8.408;2024-02-15T05:00:52;10.35;;;6.93;;
69172;SDS011;56280;49.662;8.408;2024-02-15T05:03:22;11.32;;;7.13;;
69172;SDS011;56280;49.662;8.408;2024-02-15T05:05:47;10.70;;;7.25;;
69172;SDS011;56280;49.662;8.408;2024-02-15T05:08:13;11.50;;;6.80;;
69172;SDS011;56280;49.662;8.408;2024-02-15T05:10:39;11.85;;;6.78;;
69172;SDS011;56280;49.662;8.408;2024-02-15T05:13:04;11.60;;;7.30;;
69172;SDS011;56280;49.662;8.408;2024-02-15T05:15:30;11.93;;;6.80;;
69172;SDS011;56280;49.662;8.408;2024-02-15T05:18:03;12.65;;;7.80;;
69172;SDS011;56280;49.662;8.408;2024-02-15T05:20:29;11.88;;;7.68;;
69172;SDS011;56280;49.662;8.408;2024-02-15T05:23:06;11.73;;;7.80;;
69172;SDS011;56280;49.662;8.408;2024-02-15T05:25:32;11.73;;;8.00;;
69172;SDS011;56280;49.662;8.408;2024-02-15T05:27:58;12.75;;;7.85;;
69172;SDS011;56280;49.662;8.408;2024-02-15T05:30:24;12.27;;;6.88;;
69172;SDS011;56280;49.662;8.408;2024-02-15T05:32:50;12.00;;;7.15;;
69172;SDS011;56280;49.662;8.408;2024-02-15T05:35:17;12.25;;;7.40;;
69172;SDS011;56280;49.662;8.408;2024-02-15T05:37:42;13.30;;;8.20;;
69172;SDS011;56280;49.662;8.408;2024-02-15T05:40:08;12.63;;;7.83;;
69172;SDS011;56280;49.662;8.408;2024-02-15T05:42:40;11.15;;;7.68;;
69172;SDS011;56280;49.662;8.408;2024-02-15T05:48:04;12.60;;;7.25;;
69172;SDS011;56280;49.662;8.408;2024-02-15T05:50:32;12.07;;;7.40;;
69172;SDS011;56280;49.662;8.408;2024-02-15T05:52:57;13.00;;;7.43;;
69172;SDS011;56280;49.662;8.408;2024-02-15T05:55:29;12.00;;;7.25;;
69172;SDS011;56280;49.662;8.408;2024-02-15T05:57:58;10.90;;;6.57;;
69172;SDS011;56280;49.662;8.408;2024-02-15T06:00:23;11.10;;;7.23;;
69172;SDS011;56280;49.662;8.408;2024-02-15T06:02:49;13.57;;;7.23;;
69172;SDS011;56280;49.662;8.408;2024-02-15T06:05:14;12.10;;;7.50;;
69172;SDS011;56280;49.662;8.408;2024-02-15T06:07:41;11.50;;;6.90;;
69172;SDS011;56280;49.662;8.408;2024-02-15T06:10:07;10.80;;;6.93;;
69172;SDS011;56280;49.662;8.408;2024-02-15T06:12:32;10.43;;;6.53;;
69172;SDS011;56280;49.662;8.408;2024-02-15T06:14:58;10.57;;;6.50;;
69172;SDS011;56280;49.662;8.408;2024-02-15T06:17:23;10.50;;;6.33;;
69172;SDS011;56280;49.662;8.408;2024-02-15T06:19:49;11.85;;;6.72;;
69172;SDS011;56280;49.662;8.408;2024-02-15T06:22:14;12.37;;;6.30;;
69172;SDS011;56280;49.662;8.408;2024-02-15T06:24:40;11.23;;;6.73;;
69172;SDS011;56280;49.662;8.408;2024-02-15T06:27:06;12.47;;;6.30;;
69172;SDS011;56280;49.662;8.408;2024-02-15T06:29:32;8.97;;;6.53;;
69172;SDS011;56280;49.662;8.408;2024-02-15T06:32:15;8.77;;;6.25;;
69172;SDS011;56280;49.662;8.408;2024-02-15T06:34:59;11.50;;;5.95;;
69172;SDS011;56280;49.662;8.408;2024-02-15T06:37:43;9.60;;;6.47;;
69172;SDS011;56280;49.662;8.408;2024-02-15T06:40:27;11.95;;;5.93;;
69172;SDS011;56280;49.662;8.408;2024-02-15T06:42:53;11.60;;;6.40;;
69172;SDS011;56280;49.662;8.408;2024-02-15T06:45:19;9.83;;;6.10;;
69172;SDS011;56280;49.662;8.408;2024-02-15T06:47:44;14.07;;;6.77;;
69172;SDS011;56280;49.662;8.408;2024-02-15T06:50:13;10.63;;;6.77;;
69172;SDS011;56280;49.662;8.408;2024-02-15T06:52:39;12.37;;;6.80;;
69172;SDS011;56280;49.662;8.408;2024-02-15T06:55:08;15.27;;;7.17;;
69172;SDS011;56280;49.662;8.408;2024-02-15T06:57:38;14.50;;;6.82;;
69172;SDS011;56280;49.662;8.408;2024-02-15T07:00:05;12.90;;;6.78;;
69172;SDS011;56280;49.662;8.408;2024-02-15T07:02:33;13.38;;;6.90;;
69172;SDS011;56280;49.662;8.408;2024-02-15T07:04:58;13.70;;;7.38;;
69172;SDS011;56280;49.662;8.408;2024-02-15T07:07:24;13.52;;;7.13;;
69172;SDS011;56280;49.662;8.408;2024-02-15T07:09:50;12.60;;;7.40;;
69172;SDS011;56280;49.662;8.408;2024-02-15T07:12:15;12.73;;;7.10;;
69172;SDS011;56280;49.662;8.408;2024-02-15T07:14:41;11.50;;;7.40;;
69172;SDS011;56280;49.662;8.408;2024-02-15T07:17:06;10.93;;;6.77;;
69172;SDS011;56280;49.662;8.408;2024-02-15T07:19:31;13.47;;;7.50;;
69172;SDS011;56280;49.662;8.408;2024-02-15T07:22:01;12.57;;;7.15;;
69172;SDS011;56280;49.662;8.408;2024-02-15T07:24:27;16.23;;;7.57;;
69172;SDS011;56280;49.662;8.408;2024-02-15T07:26:52;14.67;;;7.63;;
69172;SDS011;56280;49.662;8.408;2024-02-15T07:29:20;14.00;;;7.03;;
69172;SDS011;56280;49.662;8.408;2024-02-15T07:31:46;13.73;;;7.38;;
69172;SDS011;56280;49.662;8.408;2024-02-15T07:34:11;14.57;;;7.40;;
69172;SDS011;56280;49.662;8.408;2024-02-15T07:36:37;13.80;;;7.10;;
69172;SDS011;56280;49.662;8.408;2024-02-15T07:39:04;13.48;;;7.15;;
69172;SDS011;56280;49.662;8.408;2024-02-15T07:41:29;13.33;;;7.67;;
69172;SDS011;56280;49.662;8.408;2024-02-15T07:43:55;13.88;;;7.60;;
69172;SDS011;56280;49.662;8.408;2024-02-15T07:46:23;12.90;;;6.82;;
69172;SDS011;56280;49.662;8.408;2024-02-15T07:48:49;15.13;;;7.30;;
69172;SDS011;56280;49.662;8.408;2024-02-15T07:51:18;14.00;;;6.90;;
69172;SDS011;56280;49.662;8.408;2024-02-15T07:53:44;11.48;;;6.53;;
69172;SDS011;56280;49.662;8.408;2024-02-15T07:56:10;12.50;;;7.03;;
69172;SDS011;56280;49.662;8.408;2024-02-15T07:58:39;12.23;;;6.90;;
69172;SDS011;56280;49.662;8.408;2024-02-15T08:01:11;11.70;;;6.75;;
69172;SDS011;56280;49.662;8.408;2024-02-15T08:03:38;12.25;;;7.18;;
69172;SDS011;56280;49.662;8.408;2024-02-15T08:06:07;12.52;;;6.45;;
69172;SDS011;56280;49.662;8.408;2024-02-15T08:08:33;10.53;;;6.67;;
69172;SDS011;56280;49.662;8.408;2024-02-15T08:11:01;11.90;;;6.40;;
69172;SDS011;56280;49.662;8.408;2024-02-15T08:13:27;14.20;;;7.13;;
69172;SDS011;56280;49.662;8.408;2024-02-15T08:15:54;11.90;;;6.90;;
69172;SDS011;56280;49.662;8.408;2024-02-15T08:18:21;11.13;;;6.88;;
69172;SDS011;56280;49.662;8.408;2024-02-15T08:20:46;10.27;;;6.85;;
69172;SDS011;56280;49.662;8.408;2024-02-15T08:23:12;9.37;;;5.90;;
69172;SDS011;56280;49.662;8.408;2024-02-15T08:25:40;9.27;;;5.60;;
69172;SDS011;56280;49.662;8.408;2024-02-15T08:28:06;8.85;;;5.53;;
69172;SDS011;56280;49.662;8.408;2024-02-15T08:30:32;9.77;;;5.70;;
69172;SDS011;56280;49.662;8.408;2024-02-15T08:32:57;8.80;;;5.00;;
69172;SDS011;56280;49.662;8.408;2024-02-15T08:35:23;10.07;;;5.15;;
69172;SDS011;56280;49.662;8.408;2024-02-15T08:37:48;9.37;;;5.20;;
69172;SDS011;56280;49.662;8.408;2024-02-15T08:40:16;10.13;;;5.47;;
69172;SDS011;56280;49.662;8.408;2024-02-15T08:42:44;8.88;;;4.63;;
69172;SDS011;56280;49.662;8.408;2024-02-15T08:45:10;7.18;;;4.72;;
69172;SDS011;56280;49.662;8.408;2024-02-15T08:47:38;8.98;;;4.65;;
69172;SDS011;56280;49.662;8.408;2024-02-15T08:50:04;8.98;;;4.82;;
69172;SDS011;56280;49.662;8.408;2024-02-15T08:52:31;8.45;;;4.20;;
69172;SDS011;56280;49.662;8.408;2024-02-15T08:54:56;9.67;;;4.10;;
69172;SDS011;56280;49.662;8.408;2024-02-15T08:57:24;9.43;;;4.70;;
69172;SDS011;56280;49.662;8.408;2024-02-15T08:59:49;9.83;;;4.43;;
69172;SDS011;56280;49.662;8.408;2024-02-15T09:02:16;7.03;;;4.55;;
69172;SDS011;56280;49.662;8.408;2024-02-15T09:04:42;9.23;;;4.38;;
69172;SDS011;56280;49.662;8.408;2024-02-15T09:07:07;8.15;;;4.55;;
69172;SDS011;56280;49.662;8.408;2024-02-15T09:09:34;9.32;;;4.40;;
69172;SDS011;56280;49.662;8.408;2024-02-15T09:12:01;8.60;;;4.57;;
69172;SDS011;56280;49.662;8.408;2024-02-15T09:14:30;8.83;;;4.60;;
69172;SDS011;56280;49.662;8.408;2024-02-15T09:16:56;8.55;;;4.50;;
69172;SDS011;56280;49.662;8.408;2024-02-15T09:19:22;7.93;;;4.27;;
69172;SDS011;56280;49.662;8.408;2024-02-15T09:21:49;7.68;;;4.32;;
69172;SDS011;56280;49.662;8.408;2024-02-15T09:24:14;8.27;;;4.63;;
69172;SDS011;56280;49.662;8.408;2024-02-15T09:26:41;9.98;;;4.55;;
69172;SDS011;56280;49.662;8.408;2024-02-15T09:29:07;7.78;;;4.25;;
69172;SDS011;56280;49.662;8.408;2024-02-15T09:31:33;8.03;;;4.77;;
69172;SDS011;56280;49.662;8.408;2024-02-15T09:34:00;8.00;;;4.20;;
69172;SDS011;56280;49.662;8.408;2024-02-15T09:36:25;7.20;;;3.90;;
69172;SDS011;56280;49.662;8.408;2024-02-15T09:38:50;7.27;;;3.60;;
69172;SDS011;56280;49.662;8.408;2024-02-15T09:41:15;8.00;;;4.43;;
69172;SDS011;56280;49.662;8.408;2024-02-15T09:43:41;9.00;;;4.32;;
69172;SDS011;56280;49.662;8.408;2024-02-15T09:46:07;7.25;;;4.15;;
69172;SDS011;56280;49.662;8.408;2024-02-15T09:48:33;7.07;;;3.57;;
69172;SDS011;56280;49.662;8.408;2024-02-15T09:50:59;6.97;;;3.78;;
69172;SDS011;56280;49.662;8.408;2024-02-15T09:53:26;7.97;;;3.73;;
69172;SDS011;56280;49.662;8.408;2024-02-15T09:55:53;6.88;;;3.55;;
69172;SDS011;56280;49.662;8.408;2024-02-15T09:58:19;7.25;;;3.60;;
69172;SDS011;56280;49.662;8.408;2024-02-15T10:00:48;5.30;;;3.60;;
69172;SDS011;56280;49.662;8.408;2024-02-15T10:03:14;8.27;;;3.20;;
69172;SDS011;56280;49.662;8.408;2024-02-15T10:05:43;6.38;;;3.67;;
69172;SDS011;56280;49.662;8.408;2024-02-15T10:08:08;5.97;;;3.60;;
69172;SDS011;56280;49.662;8.408;2024-02-15T10:10:36;8.52;;;3.70;;
69172;SDS011;56280;49.662;8.408;2024-02-15T10:13:01;6.60;;;3.37;;
69172;SDS011;56280;49.662;8.408;2024-02-15T10:15:30;7.03;;;3.33;;
69172;SDS011;56280;49.662;8.408;2024-02-15T10:17:56;7.38;;;3.92;;
69172;SDS011;56280;49.662;8.408;2024-02-15T10:20:23;6.03;;;3.17;;
69172;SDS011;56280;49.662;8.408;2024-02-15T10:22:51;6.57;;;3.35;;
69172;SDS011;56280;49.662;8.408;2024-02-15T10:25:17;8.05;;;3.78;;
69172;SDS011;56280;49.662;8.408;2024-02-15T10:27:43;6.63;;;3.50;;
69172;SDS011;56280;49.662;8.408;2024-02-15T10:30:16;5.88;;;3.55;;
69172;SDS011;56280;49.662;8.408;2024-02-15T10:32:43;6.50;;;3.20;;
69172;SDS011;56280;49.662;8.408;2024-02-15T10:35:10;7.10;;;3.33;;
69172;SDS011;56280;49.662;8.408;2024-02-15T10:37:36;7.13;;;3.30;;
69172;SDS011;56280;49.662;8.408;2024-02-15T10:40:05;7.70;;;3.40;;
69172;SDS011;56280;49.662;8.408;2024-02-15T10:42:38;5.97;;;3.33;;
69172;SDS011;56280;49.662;8.408;2024-02-15T10:45:06;9.68;;;3.28;;
69172;SDS011;56280;49.662;8.408;2024-02-15T10:47:35;6.28;;;3.17;;
69172;SDS011;56280;49.662;8.408;2024-02-15T10:50:02;5.87;;;2.73;;
69172;SDS011;56280;49.662;8.408;2024-02-15T10:52:30;6.55;;;3.08;;
69172;SDS011;56280;49.662;8.408;2024-02-15T10:55:00;8.57;;;3.13;;
69172;SDS011;56280;49.662;8.408;2024-02-15T10:57:31;5.07;;;2.78;;
69172;SDS011;56280;49.662;8.408;2024-02-15T11:00:00;6.53;;;3.40;;
69172;SDS011;56280;49.662;8.408;2024-02-15T11:02:50;6.78;;;3.10;;
69172;SDS011;56280;49.662;8.408;2024-02-15T11:05:31;6.43;;;2.97;;
69172;SDS011;56280;49.662;8.408;2024-02-15T11:08:01;6.70;;;3.03;;
69172;SDS011;56280;49.662;8.408;2024-02-15T11:10:29;7.28;;;3.08;;
69172;SDS011;56280;49.662;8.408;2024-02-15T11:12:55;9.32;;;3.90;;
69172;SDS011;56280;49.662;8.408;2024-02-15T11:18:02;9.88;;;4.53;;
69172;SDS011;56280;49.662;8.408;2024-02-15T11:22:57;8.25;;;3.90;;
69172;SDS011;56280;49.662;8.408;2024-02-15T11:25:36;8.53;;;4.37;;
69172;SDS011;56280;49.662;8.408;2024-02-15T11:30:54;7.45;;;4.35;;
69172;SDS011;56280;49.662;8.408;2024-02-15T11:33:25;7.40;;;3.70;;
69172;SDS011;56280;49.662;8.408;2024-02-15T11:36:08;6.60;;;3.80;;
69172;SDS011;56280;49.662;8.408;2024-02-15T11:38:35;7.85;;;4.53;;
69172;SDS011;56280;49.662;8.408;2024-02-15T11:41:01;8.88;;;3.92;;
69172;SDS011;56280;49.662;8.408;2024-02-15T11:46:27;7.50;;;3.97;;
69172;SDS011;56280;49.662;8.408;2024-02-15T11:49:03;7.20;;;3.42;;
69172;SDS011;56280;49.662;8.408;2024-02-15T11:51:38;7.18;;;3.58;;
69172;SDS011;56280;49.662;8.408;2024-02-15T11:54:22;8.80;;;3.72;;
69172;SDS011;56280;49.662;8.408;2024-02-15T11:56:56;6.47;;;3.30;;
69172;SDS011;56280;49.662;8.408;2024-02-15T11:59:44;7.82;;;4.13;;
69172;SDS011;56280;49.662;8.408;2024-02-15T12:02:37;8.88;;;4.38;;
69172;SDS011;56280;49.662;8.408;2024-02-15T12:05:22;8.57;;;4.82;;
69172;SDS011;56280;49.662;8.408;2024-02-15T12:08:06;10.35;;;5.43;;
69172;SDS011;56280;49.662;8.408;2024-02-15T12:10:59;9.20;;;5.22;;
69172;SDS011;56280;49.662;8.408;2024-02-15T12:13:43;9.20;;;5.10;;
69172;SDS011;56280;49.662;8.408;2024-02-15T12:16:27;8.60;;;5.10;;
69172;SDS011;56280;49.662;8.408;2024-02-15T12:19:11;7.75;;;3.60;;
69172;SDS011;56280;49.662;8.408;2024-02-15T12:21:36;7.30;;;4.27;;
69172;SDS011;56280;49.662;8.408;2024-02-15T12:24:06;7.93;;;3.63;;
69172;SDS011;56280;49.662;8.408;2024-02-15T12:26:32;8.07;;;3.85;;
69172;SDS011;56280;49.662;8.408;2024-02-15T12:28:59;7.18;;;3.42;;
69172;SDS011;56280;49.662;8.408;2024-02-15T12:31:28;7.53;;;3.72;;
69172;SDS011;56280;49.662;8.408;2024-02-15T12:34:03;7.38;;;3.20;;
69172;SDS011;56280;49.662;8.408;2024-02-15T12:36:36;8.73;;;3.73;;
69172;SDS011;56280;49.662;8.408;2024-02-15T12:39:03;8.85;;;3.03;;
69172;SDS011;56280;49.662;8.408;2024-02-15T12:41:50;8.57;;;3.47;;
69172;SDS011;56280;49.662;8.408;2024-02-15T12:44:17;7.30;;;3.63;;
69172;SDS011;56280;49.662;8.408;2024-02-15T12:46:45;8.52;;;3.70;;
69172;SDS011;56280;49.662;8.408;2024-02-15T12:51:54;7.38;;;2.92;;
69172;SDS011;56280;49.662;8.408;2024-02-15T12:58:05;7.53;;;3.08;;
69172;SDS011;56280;49.662;8.408;2024-02-15T13:00:38;7.50;;;2.90;;
69172;SDS011;56280;49.662;8.408;2024-02-15T13:03:05;8.95;;;3.45;;
69172;SDS011;56280;49.662;8.408;2024-02-15T13:05:35;7.00;;;3.53;;
69172;SDS011;56280;49.662;8.408;2024-02-15T13:08:03;7.85;;;3.03;;
69172;SDS011;56280;49.662;8.408;2024-02-15T13:10:38;8.48;;;3.10;;
69172;SDS011;56280;49.662;8.408;2024-02-15T13:13:04;8.18;;;3.70;;
69172;SDS011;56280;49.662;8.408;2024-02-15T13:15:30;6.90;;;3.13;;
69172;SDS011;56280;49.662;8.408;2024-02-15T13:17:59;8.67;;;3.40;;
69172;SDS011;56280;49.662;8.408;2024-02-15T13:20:28;8.07;;;3.10;;
69172;SDS011;56280;49.662;8.408;2024-02-15T13:23:01;8.52;;;3.17;;
69172;SDS011;56280;49.662;8.408;2024-02-15T13:25:33;6.93;;;3.00;;
69172;SDS011;56280;49.662;8.408;2024-02-15T13:27:58;8.90;;;3.20;;
69172;SDS011;56280;49.662;8.408;2024-02-15T13:30:24;6.53;;;3.00;;
69172;SDS011;56280;49.662;8.408;2024-02-15T13:32:52;8.82;;;3.25;;
69172;SDS011;56280;49.662;8.408;2024-02-15T13:35:19;8.75;;;3.33;;
69172;SDS011;56280;49.662;8.408;2024-02-15T13:37:51;6.87;;;3.03;;
69172;SDS011;56280;49.662;8.408;2024-02-15T13:40:23;7.20;;;2.97;;
69172;SDS011;56280;49.662;8.408;2024-02-15T13:42:50;7.45;;;2.92;;
69172;SDS011;56280;49.662;8.408;2024-02-15T13:45:24;15.00;;;5.73;;
69172;SDS011;56280;49.662;8.408;2024-02-15T13:47:55;6.75;;;2.72;;
69172;SDS011;56280;49.662;8.408;2024-02-15T13:50:21;7.47;;;2.83;;
69172;SDS011;56280;49.662;8.408;2024-02-15T13:52:48;7.15;;;2.95;;
69172;SDS011;56280;49.662;8.408;2024-02-15T13:55:14;9.43;;;3.30;;
69172;SDS011;56280;49.662;8.408;2024-02-15T13:57:44;6.15;;;2.78;;
69172;SDS011;56280;49.662;8.408;2024-02-15T14:00:11;8.82;;;3.28;;
69172;SDS011;56280;49.662;8.408;2024-02-15T14:02:42;6.75;;;3.15;;
69172;SDS011;56280;49.662;8.408;2024-02-15T14:05:08;7.13;;;3.42;;
69172;SDS011;56280;49.662;8.408;2024-02-15T14:07:34;7.25;;;3.08;;
69172;SDS011;56280;49.662;8.408;2024-02-15T14:10:01;10.25;;;3.17;;
69172;SDS011;56280;49.662;8.408;2024-02-15T14:12:27;7.55;;;3.20;;
69172;SDS011;56280;49.662;8.408;2024-02-15T14:14:52;7.93;;;3.40;;
69172;SDS011;56280;49.662;8.408;2024-02-15T14:17:17;7.27;;;3.50;;
69172;SDS011;56280;49.662;8.408;2024-02-15T14:19:43;8.07;;;3.08;;
69172;SDS011;56280;49.662;8.408;2024-02-15T14:22:08;9.00;;;3.17;;
69172;SDS011;56280;49.662;8.408;2024-02-15T14:24:34;6.75;;;2.85;;
69172;SDS011;56280;49.662;8.408;2024-02-15T14:26:59;8.83;;;2.83;;
69172;SDS011;56280;49.662;8.408;2024-02-15T14:29:24;6.10;;;2.90;;
69172;SDS011;56280;49.662;8.408;2024-02-15T14:31:54;6.63;;;3.10;;
69172;SDS011;56280;49.662;8.408;2024-02-15T14:34:42;6.88;;;2.60;;
69172;SDS011;56280;49.662;8.408;2024-02-15T14:37:07;6.60;;;2.90;;
69172;SDS011;56280;49.662;8.408;2024-02-15T14:39:34;6.70;;;2.83;;
69172;SDS011;56280;49.662;8.408;2024-02-15T14:42:00;5.20;;;2.40;;
69172;SDS011;56280;49.662;8.408;2024-02-15T14:44:25;6.57;;;2.97;;
69172;SDS011;56280;49.662;8.408;2024-02-15T14:46:50;8.13;;;3.38;;
69172;SDS011;56280;49.662;8.408;2024-02-15T14:49:15;6.80;;;3.00;;
69172;SDS011;56280;49.662;8.408;2024-02-15T14:51:41;7.85;;;2.88;;
69172;SDS011;56280;49.662;8.408;2024-02-15T14:54:07;5.93;;;3.40;;
69172;SDS011;56280;49.662;8.408;2024-02-15T14:56:33;6.30;;;3.08;;
69172;SDS011;56280;49.662;8.408;2024-02-15T14:58:58;7.93;;;2.90;;
69172;SDS011;56280;49.662;8.408;2024-02-15T15:01:25;7.47;;;2.80;;
69172;SDS011;56280;49.662;8.408;2024-02-15T15:03:55;7.47;;;2.73;;
69172;SDS011;56280;49.662;8.408;2024-02-15T15:06:22;7.93;;;2.80;;